createdAt,value
2023-02-27T00:00:50.921Z,0.11
2023-02-27T00:03:21.026Z,0.12
2023-02-27T00:05:51.146Z,0.13
2023-02-27T00:08:21.335Z,0.13
2023-02-27T00:10:51.339Z,0.11
2023-02-27T00:13:21.476Z,0.11
2023-02-27T00:15:51.549Z,0.13
2023-02-27T00:18:21.679Z,0.14
2023-02-27T00:20:51.826Z,0.14
2023-02-27T00:23:21.895Z,0.13
2023-02-27T00:25:52.003Z,0.14
2023-02-27T00:28:22.137Z,0.13
2023-02-27T00:30:52.286Z,0.13
2023-02-27T00:33:22.314Z,0.13
2023-02-27T00:35:52.425Z,0.11
2023-02-27T00:38:22.502Z,0.09
2023-02-27T00:40:52.618Z,0.11
2023-02-27T00:43:22.730Z,0.1
2023-02-27T00:45:52.771Z,0.1
2023-02-27T00:48:22.886Z,0.11
2023-02-27T00:50:52.993Z,0.11
2023-02-27T00:53:23.054Z,0.12
2023-02-27T00:55:53.166Z,0.12
2023-02-27T00:58:23.277Z,0.1
2023-02-27T01:00:53.392Z,0.1
2023-02-27T01:03:23.533Z,0.12
2023-02-27T01:05:53.559Z,0.13
2023-02-27T01:08:23.678Z,0.12
2023-02-27T01:10:53.728Z,0.13
2023-02-27T01:13:23.883Z,0.12
2023-02-27T01:15:53.938Z,0.11
2023-02-27T01:18:24.165Z,0.11
2023-02-27T01:20:54.217Z,0.11
2023-02-27T01:23:24.313Z,0.11
2023-02-27T01:25:54.452Z,0.1
2023-02-27T01:28:24.609Z,0.1
2023-02-27T01:30:54.699Z,0.11
2023-02-27T01:33:24.897Z,0.11
2023-02-27T01:35:54.962Z,0.11
2023-02-27T01:38:25.061Z,0.11
2023-02-27T01:40:55.182Z,0.12
2023-02-27T01:43:25.314Z,0.11
2023-02-27T01:45:55.417Z,0.1
2023-02-27T01:48:25.594Z,0.1
2023-02-27T01:50:55.678Z,0.1
2023-02-27T01:53:25.766Z,0.1
2023-02-27T01:55:55.894Z,0.11
2023-02-27T01:58:26.054Z,0.09
2023-02-27T02:00:56.245Z,0.11
2023-02-27T02:03:26.301Z,0.13
2023-02-27T02:05:56.556Z,0.16
2023-02-27T02:08:26.556Z,0.15
2023-02-27T02:10:56.706Z,0.15
2023-02-27T02:13:26.910Z,0.14
2023-02-27T02:15:56.991Z,0.15
2023-02-27T02:18:27.231Z,0.15
2023-02-27T02:20:57.332Z,0.14
2023-02-27T02:23:27.448Z,0.13
2023-02-27T02:25:57.714Z,0.13
2023-02-27T02:28:27.829Z,0.13
2023-02-27T02:30:57.979Z,0.12
2023-02-27T02:33:28.120Z,0.13
2023-02-27T02:35:58.166Z,0.12
2023-02-27T02:38:28.279Z,0.11
2023-02-27T02:40:58.416Z,0.11
2023-02-27T02:43:28.594Z,0.12
2023-02-27T02:45:58.700Z,0.12
2023-02-27T02:48:28.840Z,0.1
2023-02-27T02:50:59.013Z,0.09
2023-02-27T02:53:36.641Z,0.09
2023-02-27T02:55:59.267Z,0.09
2023-02-27T02:58:29.457Z,0.08
2023-02-27T03:00:59.551Z,0.08
2023-02-27T03:03:29.805Z,0.08
2023-02-27T03:05:59.895Z,0.08
2023-02-27T03:08:30.688Z,0.08
2023-02-27T03:11:00.729Z,0.08
2023-02-27T03:13:31.013Z,0.08
2023-02-27T03:16:00.996Z,0.08
2023-02-27T03:18:31.162Z,0.08
2023-02-27T03:21:01.322Z,0.08
2023-02-27T03:23:31.444Z,0.08
2023-02-27T03:26:01.611Z,0.08
2023-02-27T03:28:31.813Z,0.07
2023-02-27T03:31:02.047Z,0.07
2023-02-27T03:33:32.078Z,0.07
2023-02-27T03:36:02.288Z,0.07
2023-02-27T03:38:32.415Z,0.06
2023-02-27T03:41:02.527Z,0.06
2023-02-27T03:43:32.711Z,0.06
2023-02-27T03:46:02.877Z,0.06
2023-02-27T03:48:33.006Z,0.06
2023-02-27T03:51:03.154Z,0.05
2023-02-27T03:53:33.448Z,0.06
2023-02-27T03:56:03.450Z,0.06
2023-02-27T03:58:33.641Z,0.06
2023-02-27T04:01:03.737Z,0.05
2023-02-27T04:03:34.618Z,0.04
2023-02-27T04:06:04.678Z,0.06
2023-02-27T04:08:34.807Z,0.08
2023-02-27T04:11:04.940Z,0.08
2023-02-27T04:13:35.201Z,0.08
2023-02-27T04:16:05.252Z,0.08
2023-02-27T04:18:35.447Z,0.08
2023-02-27T04:21:05.603Z,0.06
2023-02-27T04:23:35.755Z,0.05
2023-02-27T04:26:05.926Z,0.05
2023-02-27T04:28:36.161Z,0.05
2023-02-27T04:31:06.371Z,0.05
2023-02-27T04:33:36.475Z,0.05
2023-02-27T04:36:06.683Z,0.05
2023-02-27T04:38:36.818Z,0.05
2023-02-27T04:41:07.033Z,0.05
2023-02-27T04:43:37.217Z,0.05
2023-02-27T04:46:07.346Z,0.06
2023-02-27T04:48:37.552Z,0.06
2023-02-27T04:51:09.812Z,0.06
2023-02-27T04:53:37.899Z,0.06
2023-02-27T04:56:08.072Z,0.06
2023-02-27T04:58:38.301Z,0.06
2023-02-27T05:01:08.422Z,0.06
2023-02-27T05:03:38.636Z,0.05
2023-02-27T05:06:08.832Z,0.05
2023-02-27T05:08:39.076Z,0.04
2023-02-27T05:11:09.168Z,0.04
2023-02-27T05:13:39.400Z,0.03
2023-02-27T05:16:09.589Z,0.03
2023-02-27T05:18:39.782Z,0.03
2023-02-27T05:21:10.007Z,0.03
2023-02-27T05:23:40.190Z,0.03
2023-02-27T05:26:10.411Z,0.04
2023-02-27T05:28:40.659Z,0.05
2023-02-27T05:31:10.821Z,0.05
2023-02-27T05:33:41.070Z,0.04
2023-02-27T05:36:11.462Z,0.04
2023-02-27T05:38:41.731Z,0.04
2023-02-27T05:41:12.284Z,0.04
2023-02-27T05:43:42.518Z,0.04
2023-02-27T05:46:12.670Z,0.05
2023-02-27T05:48:42.924Z,0.05
2023-02-27T05:51:13.709Z,0.03
2023-02-27T05:53:43.875Z,0.03
2023-02-27T05:56:14.092Z,0.03
2023-02-27T05:58:44.325Z,0.03
2023-02-27T06:01:14.466Z,0.03
2023-02-27T06:03:44.832Z,0.03
2023-02-27T06:06:14.929Z,0.03
2023-02-27T06:08:45.084Z,0.03
2023-02-27T06:11:15.288Z,0.03
2023-02-27T06:13:46.083Z,0.02
2023-02-27T06:16:16.310Z,0.02
2023-02-27T06:18:46.462Z,0.03
2023-02-27T06:21:16.696Z,0.03
2023-02-27T06:23:46.860Z,0.02
2023-02-27T06:26:17.639Z,0.03
2023-02-27T06:28:47.878Z,0.03
2023-02-27T06:31:18.086Z,0.03
2023-02-27T06:33:48.252Z,0.02
2023-02-27T06:36:18.476Z,0.02
2023-02-27T06:38:48.656Z,0.03
2023-02-27T06:41:18.857Z,0.03
2023-02-27T06:43:49.671Z,0.03
2023-02-27T06:46:19.931Z,0.03
2023-02-27T06:48:50.063Z,0.03
2023-02-27T06:51:20.289Z,0.03
2023-02-27T06:53:50.473Z,0.03
2023-02-27T06:56:20.709Z,0.03
2023-02-27T06:58:50.959Z,0.03
2023-02-27T07:01:21.164Z,0.03
2023-02-27T07:03:51.356Z,0.03
2023-02-27T07:06:21.659Z,0.03
2023-02-27T07:09:01.246Z,0.02
2023-02-27T07:11:23.167Z,0.02
2023-02-27T07:13:53.347Z,0.02
2023-02-27T07:16:23.553Z,0.03
2023-02-27T07:18:54.015Z,0.03
2023-02-27T07:21:24.241Z,0.03
2023-02-27T07:23:54.500Z,0.03
2023-02-27T07:26:24.729Z,0.03
2023-02-27T07:28:54.929Z,0.02
2023-02-27T07:31:28.022Z,0.02
2023-02-27T07:33:55.917Z,0.02
2023-02-27T07:36:26.553Z,0.02
2023-02-27T07:38:56.430Z,0.02
2023-02-27T07:41:30.675Z,0.02
2023-02-27T07:43:57.409Z,0.02
2023-02-27T07:46:28.267Z,0.02
2023-02-27T07:48:58.410Z,0.02
2023-02-27T07:51:28.558Z,0.02
2023-02-27T07:53:58.861Z,0.02
2023-02-27T07:56:29.260Z,0.02
2023-02-27T07:58:59.099Z,0.02
2023-02-27T08:01:29.677Z,0.02
2023-02-27T08:04:00.289Z,0.02
2023-02-27T08:06:30.666Z,0.02
2023-02-27T08:09:00.751Z,0.02
2023-02-27T08:11:30.942Z,0.02
2023-02-27T08:14:02.433Z,0.03
2023-02-27T08:16:32.471Z,0.03
2023-02-27T08:19:01.819Z,0.03
2023-02-27T08:21:32.290Z,0.03
2023-02-27T08:24:03.195Z,0.04
2023-02-27T08:26:33.841Z,0.04
2023-02-27T08:29:04.526Z,0.05
2023-02-27T08:31:35.304Z,0.04
2023-02-27T08:34:10.266Z,0.04
2023-02-27T08:36:36.334Z,0.05
2023-02-27T08:39:06.918Z,0.05
2023-02-27T08:41:37.653Z,0.05
2023-02-27T08:44:07.768Z,0.07
2023-02-27T08:46:38.230Z,0.06
2023-02-27T08:49:08.912Z,0.06
2023-02-27T08:51:39.652Z,0.07
2023-02-27T08:54:10.080Z,0.07
2023-02-27T08:56:40.248Z,0.08
2023-02-27T08:59:10.436Z,0.08
2023-02-27T09:01:40.573Z,0.08
2023-02-27T09:04:10.709Z,0.08
2023-02-27T09:06:41.551Z,0.08
2023-02-27T09:09:12.136Z,0.09
2023-02-27T09:11:42.424Z,0.11
2023-02-27T09:14:12.953Z,0.11
2023-02-27T09:16:43.145Z,0.12
2023-02-27T09:19:13.216Z,0.11
2023-02-27T09:21:43.866Z,0.12
2023-02-27T09:24:20.385Z,0.13
2023-02-27T09:26:46.422Z,0.15
2023-02-27T09:29:15.296Z,0.14
2023-02-27T09:31:45.848Z,0.14
2023-02-27T09:34:16.617Z,0.13
2023-02-27T09:36:47.431Z,0.13
2023-02-27T09:39:18.067Z,0.13
2023-02-27T09:41:48.302Z,0.14
2023-02-27T09:44:18.391Z,0.13
2023-02-27T09:46:48.903Z,0.13
2023-02-27T09:49:18.982Z,0.13
2023-02-27T09:51:50.585Z,0.14
2023-02-27T09:54:20.512Z,0.14
2023-02-27T09:56:51.036Z,0.13
2023-02-27T09:59:21.654Z,0.14
2023-02-27T10:01:51.660Z,0.13
2023-02-27T10:04:22.539Z,0.17
2023-02-27T10:06:53.379Z,0.17
2023-02-27T10:09:24.299Z,0.18
2023-02-27T10:11:55.066Z,0.2
2023-02-27T10:14:25.909Z,0.2
2023-02-27T10:16:56.783Z,0.2
2023-02-27T10:19:27.233Z,0.2
2023-02-27T10:21:57.814Z,0.2
2023-02-27T10:24:28.649Z,0.21
2023-02-27T10:26:59.446Z,0.21
2023-02-27T10:29:30.265Z,0.21
2023-02-27T10:32:01.118Z,0.21
2023-02-27T10:34:31.891Z,0.24
2023-02-27T10:37:02.676Z,0.22
2023-02-27T10:39:33.506Z,0.25
2023-02-27T10:42:04.267Z,0.25
2023-02-27T10:44:35.063Z,0.28
2023-02-27T10:47:05.835Z,0.25
2023-02-27T10:49:36.635Z,0.26
2023-02-27T10:52:07.492Z,0.25
2023-02-27T10:54:38.204Z,0.28
2023-02-27T10:57:08.950Z,0.25
2023-02-27T10:59:39.408Z,0.3
2023-02-27T11:02:09.312Z,0.3
2023-02-27T11:04:40.161Z,0.29
2023-02-27T11:07:10.934Z,0.29
2023-02-27T11:09:41.724Z,0.3
2023-02-27T11:12:12.492Z,0.28
2023-02-27T11:14:43.312Z,0.3
2023-02-27T11:17:14.309Z,0.29
2023-02-27T11:19:44.933Z,0.26
2023-02-27T11:22:15.690Z,0.27
2023-02-27T11:24:46.494Z,0.33
2023-02-27T11:27:17.254Z,0.38
2023-02-27T11:29:48.026Z,0.35
2023-02-27T11:32:18.881Z,0.35
2023-02-27T11:34:49.578Z,0.31
2023-02-27T11:37:20.374Z,0.32
2023-02-27T11:39:51.230Z,0.36
2023-02-27T11:42:21.957Z,0.32
2023-02-27T11:44:52.670Z,0.31
2023-02-27T11:47:23.469Z,0.31
2023-02-27T11:49:54.228Z,0.27
2023-02-27T11:52:24.963Z,0.34
2023-02-27T11:54:55.764Z,0.32
2023-02-27T11:57:26.496Z,0.31
2023-02-27T11:59:57.299Z,0.28
2023-02-27T12:02:28.143Z,0.26
2023-02-27T12:04:58.793Z,0.27
2023-02-27T12:07:29.580Z,0.26
2023-02-27T12:10:00.284Z,0.26
2023-02-27T12:12:31.007Z,0.31
2023-02-27T12:15:01.833Z,0.34
2023-02-27T12:17:31.944Z,0.32
2023-02-27T12:20:02.594Z,0.3
2023-02-27T12:22:33.338Z,0.33
2023-02-27T12:25:04.130Z,0.34
2023-02-27T12:27:34.858Z,0.32
2023-02-27T12:30:05.662Z,0.31
2023-02-27T12:32:36.488Z,0.31
2023-02-27T12:35:07.223Z,0.29
2023-02-27T12:37:38.004Z,0.32
2023-02-27T12:40:08.852Z,0.34
2023-02-27T12:42:39.591Z,0.33
2023-02-27T12:45:10.394Z,0.35
2023-02-27T12:47:41.226Z,0.31
2023-02-27T12:50:11.690Z,0.33
2023-02-27T12:52:42.490Z,0.33
2023-02-27T12:55:13.224Z,0.31
2023-02-27T12:57:43.446Z,0.31
2023-02-27T13:00:14.225Z,0.28
2023-02-27T13:02:44.967Z,0.28
2023-02-27T13:05:15.871Z,0.32
2023-02-27T13:07:46.506Z,0.34
2023-02-27T13:10:17.438Z,0.29
2023-02-27T13:12:48.215Z,0.3
2023-02-27T13:15:18.506Z,0.31
2023-02-27T13:17:49.395Z,0.27
2023-02-27T13:20:19.734Z,0.35
2023-02-27T13:22:50.492Z,0.29
2023-02-27T13:25:21.237Z,0.28
2023-02-27T13:27:51.950Z,0.29
2023-02-27T13:30:22.700Z,0.34
2023-02-27T13:32:53.589Z,0.35
2023-02-27T13:35:24.204Z,0.32
2023-02-27T13:37:54.943Z,0.31
2023-02-27T13:40:25.743Z,0.38
2023-02-27T13:42:56.461Z,0.33
2023-02-27T13:45:27.226Z,0.32
2023-02-27T13:47:58.029Z,0.29
2023-02-27T13:50:28.747Z,0.35
2023-02-27T13:52:59.464Z,0.4
2023-02-27T13:55:30.373Z,0.38
2023-02-27T13:58:00.951Z,0.38
2023-02-27T14:00:31.702Z,0.42
2023-02-27T14:03:02.546Z,0.38
2023-02-27T14:05:33.160Z,0.37
2023-02-27T14:08:03.911Z,0.42
2023-02-27T14:10:34.761Z,0.4
2023-02-27T14:13:05.244Z,0.34
2023-02-27T14:15:36.022Z,0.3
2023-02-27T14:18:17.822Z,0.35
2023-02-27T14:20:37.171Z,0.35
2023-02-27T14:23:07.837Z,0.37
2023-02-27T14:25:38.557Z,0.34
2023-02-27T14:28:09.232Z,0.34
2023-02-27T14:30:39.967Z,0.32
2023-02-27T14:33:10.629Z,0.37
2023-02-27T14:35:41.362Z,0.36
2023-02-27T14:38:12.036Z,0.37
2023-02-27T14:40:42.789Z,0.34
2023-02-27T14:43:13.441Z,0.34
2023-02-27T14:45:44.166Z,0.34
2023-02-27T14:48:14.954Z,0.34
2023-02-27T14:50:45.682Z,0.37
2023-02-27T14:53:16.612Z,0.38
2023-02-27T14:55:47.391Z,0.33
2023-02-27T14:58:17.968Z,0.34
2023-02-27T15:00:48.712Z,0.37
2023-02-27T15:03:19.418Z,0.37
2023-02-27T15:05:50.202Z,0.37
2023-02-27T15:08:20.849Z,0.34
2023-02-27T15:10:51.611Z,0.33
2023-02-27T15:13:22.306Z,0.35
2023-02-27T15:15:53.063Z,0.28
2023-02-27T15:18:23.737Z,0.34
2023-02-27T15:20:54.496Z,0.38
2023-02-27T15:23:25.160Z,0.38
2023-02-27T15:25:55.901Z,0.37
2023-02-27T15:28:26.600Z,0.31
2023-02-27T15:30:57.538Z,0.3
2023-02-27T15:33:28.031Z,0.33
2023-02-27T15:35:58.809Z,0.34
2023-02-27T15:38:29.526Z,0.29
2023-02-27T15:41:00.413Z,0.35
2023-02-27T15:43:31.127Z,0.34
2023-02-27T15:46:01.814Z,0.33
2023-02-27T15:48:32.557Z,0.32
2023-02-27T15:51:03.355Z,0.33
2023-02-27T15:53:34.368Z,0.35
2023-02-27T15:56:04.843Z,0.3
2023-02-27T15:58:35.618Z,0.33
2023-02-27T16:01:06.397Z,0.33
2023-02-27T16:03:37.083Z,0.31
2023-02-27T16:06:07.754Z,0.33
2023-02-27T16:08:38.413Z,0.28
2023-02-27T16:11:09.207Z,0.31
2023-02-27T16:13:39.881Z,0.3
2023-02-27T16:16:10.665Z,0.3
2023-02-27T16:18:41.299Z,0.3
2023-02-27T16:21:12.064Z,0.27
2023-02-27T16:23:42.853Z,0.3
2023-02-27T16:26:13.542Z,0.27
2023-02-27T16:28:44.235Z,0.27
2023-02-27T16:31:14.997Z,0.29
2023-02-27T16:33:45.768Z,0.28
2023-02-27T16:36:16.445Z,0.26
2023-02-27T16:38:47.196Z,0.26
2023-02-27T16:41:19.014Z,0.25
2023-02-27T16:43:48.672Z,0.27
2023-02-27T16:46:19.413Z,0.29
2023-02-27T16:48:50.172Z,0.29
2023-02-27T16:51:20.910Z,0.29
2023-02-27T16:53:51.656Z,0.29
2023-02-27T16:56:35.783Z,0.3
2023-02-27T16:58:53.100Z,0.28
2023-02-27T17:01:23.984Z,0.25
2023-02-27T17:03:54.812Z,0.26
2023-02-27T17:06:25.608Z,0.24
2023-02-27T17:08:56.377Z,0.23
2023-02-27T17:11:26.863Z,0.23
2023-02-27T17:13:57.589Z,0.22
2023-02-27T17:16:28.709Z,0.25
2023-02-27T17:18:58.792Z,0.26
2023-02-27T17:21:29.533Z,0.27
2023-02-27T17:24:00.305Z,0.28
2023-02-27T17:26:31.158Z,0.28
2023-02-27T17:29:01.861Z,0.27
2023-02-27T17:31:32.671Z,0.24
2023-02-27T17:34:03.426Z,0.26
2023-02-27T17:36:34.238Z,0.25
2023-02-27T17:39:05.008Z,0.26
2023-02-27T17:41:36.041Z,0.25
2023-02-27T17:44:10.148Z,0.26
2023-02-27T17:46:37.454Z,0.27
2023-02-27T17:49:08.179Z,0.25
2023-02-27T17:51:39.061Z,0.24
2023-02-27T17:54:09.781Z,0.23
2023-02-27T17:56:40.102Z,0.25
2023-02-27T17:59:10.265Z,0.24
2023-02-27T18:01:41.155Z,0.24
2023-02-27T18:04:11.866Z,0.25
2023-02-27T18:06:42.685Z,0.25
2023-02-27T18:09:13.478Z,0.25
2023-02-27T18:11:44.337Z,0.24
2023-02-27T18:14:15.108Z,0.23
2023-02-27T18:16:45.931Z,0.22
2023-02-27T18:19:16.738Z,0.2
2023-02-27T18:21:47.358Z,0.2
2023-02-27T18:24:18.007Z,0.23
2023-02-27T18:26:48.842Z,0.24
2023-02-27T18:29:19.366Z,0.22
2023-02-27T18:31:50.413Z,0.23
2023-02-27T18:34:21.017Z,0.22
2023-02-27T18:36:51.957Z,0.22
2023-02-27T18:39:22.685Z,0.23
2023-02-27T18:41:53.696Z,0.22
2023-02-27T18:44:24.336Z,0.22
2023-02-27T18:46:55.284Z,0.19
2023-02-27T18:49:26.003Z,0.2
2023-02-27T18:51:56.900Z,0.19
2023-02-27T18:54:27.672Z,0.19
2023-02-27T18:56:58.531Z,0.18
2023-02-27T18:59:29.343Z,0.18
2023-02-27T19:02:00.169Z,0.17
2023-02-27T19:04:31.007Z,0.18
2023-02-27T19:07:01.857Z,0.19
2023-02-27T19:09:32.666Z,0.19
2023-02-27T19:12:03.527Z,0.2
2023-02-27T19:14:34.313Z,0.19
2023-02-27T19:17:05.140Z,0.17
2023-02-27T19:19:35.947Z,0.16
2023-02-27T19:22:06.778Z,0.15
2023-02-27T19:24:37.611Z,0.18
2023-02-27T19:27:07.704Z,0.18
2023-02-27T19:29:38.122Z,0.16
2023-02-27T19:32:09.075Z,0.13
2023-02-27T19:34:39.789Z,0.13
2023-02-27T19:37:10.371Z,0.13
2023-02-27T19:39:40.375Z,0.11
2023-02-27T19:42:10.920Z,0.12
2023-02-27T19:44:40.894Z,0.13
2023-02-27T19:47:11.023Z,0.14
2023-02-27T19:49:41.785Z,0.14
2023-02-27T19:52:12.065Z,0.15
2023-02-27T19:54:42.391Z,0.13
2023-02-27T19:57:12.962Z,0.13
2023-02-27T19:59:43.027Z,0.13
2023-02-27T20:02:13.112Z,0.13
2023-02-27T20:04:43.658Z,0.13
2023-02-27T20:07:14.307Z,0.12
2023-02-27T20:09:44.407Z,0.12
2023-02-27T20:12:14.953Z,0.11
2023-02-27T20:14:44.999Z,0.1
2023-02-27T20:17:15.655Z,0.11
2023-02-27T20:19:46.561Z,0.09
2023-02-27T20:22:16.666Z,0.07
2023-02-27T20:24:47.178Z,0.06
2023-02-27T20:27:17.852Z,0.06
2023-02-27T20:29:48.193Z,0.06
2023-02-27T20:32:18.480Z,0.07
2023-02-27T20:34:48.837Z,0.09
2023-02-27T20:37:18.925Z,0.08
2023-02-27T20:39:48.988Z,0.09
2023-02-27T20:42:19.029Z,0.1
2023-02-27T20:44:49.070Z,0.1
2023-02-27T20:47:19.160Z,0.09
2023-02-27T20:49:49.162Z,0.1
2023-02-27T20:52:19.313Z,0.11
2023-02-27T20:54:49.337Z,0.11
2023-02-27T20:57:19.354Z,0.1
2023-02-27T20:59:49.375Z,0.09
2023-02-27T21:02:19.482Z,0.09
2023-02-27T21:04:49.668Z,0.1
2023-02-27T21:07:19.660Z,0.1
2023-02-27T21:09:49.625Z,0.11
2023-02-27T21:12:19.667Z,0.12
2023-02-27T21:14:50.015Z,0.12
2023-02-27T21:17:20.626Z,0.13
2023-02-27T21:19:50.696Z,0.12
2023-02-27T21:22:21.476Z,0.12
2023-02-27T21:24:51.975Z,0.11
2023-02-27T21:27:22.442Z,0.1
2023-02-27T21:29:52.378Z,0.1
2023-02-27T21:32:23.124Z,0.1
2023-02-27T21:34:53.130Z,0.09
2023-02-27T21:37:23.119Z,0.09
2023-02-27T21:39:53.825Z,0.1
2023-02-27T21:42:24.116Z,0.09
2023-02-27T21:44:54.110Z,0.06
2023-02-27T21:47:24.192Z,0.05
2023-02-27T21:49:54.834Z,0.05
2023-02-27T21:52:24.872Z,0.05
2023-02-27T21:54:54.817Z,0.06
2023-02-27T21:57:25.153Z,0.07
2023-02-27T21:59:55.739Z,0.08
2023-02-27T22:02:25.861Z,0.08
2023-02-27T22:04:55.843Z,0.09
2023-02-27T22:07:26.249Z,0.1
2023-02-27T22:09:56.630Z,0.1
2023-02-27T22:12:26.904Z,0.1
2023-02-27T22:14:57.033Z,0.11
2023-02-27T22:17:27.572Z,0.12
2023-02-27T22:19:57.947Z,0.12
2023-02-27T22:22:28.045Z,0.12
2023-02-27T22:24:58.686Z,0.12
2023-02-27T22:27:29.297Z,0.12
2023-02-27T22:29:59.360Z,0.12
2023-02-27T22:32:30.047Z,0.12
2023-02-27T22:35:00.121Z,0.12
2023-02-27T22:37:30.107Z,0.11
2023-02-27T22:40:00.207Z,0.11
2023-02-27T22:42:30.871Z,0.11
2023-02-27T22:45:01.472Z,0.11
2023-02-27T22:47:31.491Z,0.11
2023-02-27T22:50:02.347Z,0.11
2023-02-27T22:52:32.362Z,0.11
2023-02-27T22:55:02.428Z,0.11
2023-02-27T22:57:33.103Z,0.1
2023-02-27T23:00:03.082Z,0.11
2023-02-27T23:02:33.733Z,0.11
2023-02-27T23:05:04.433Z,0.1
2023-02-27T23:07:35.001Z,0.1
2023-02-27T23:10:05.274Z,0.08
2023-02-27T23:12:35.370Z,0.08
2023-02-27T23:15:06.357Z,0.09
2023-02-27T23:17:41.423Z,0.1
2023-02-27T23:20:07.440Z,0.1
2023-02-27T23:22:37.561Z,0.1
2023-02-27T23:25:08.431Z,0.1
2023-02-27T23:27:38.831Z,0.1
2023-02-27T23:30:09.377Z,0.09
2023-02-27T23:32:39.785Z,0.1
2023-02-27T23:35:09.757Z,0.09
2023-02-27T23:37:40.159Z,0.09
2023-02-27T23:40:10.442Z,0.09
2023-02-27T23:42:40.571Z,0.09
2023-02-27T23:45:10.833Z,0.08
2023-02-27T23:47:41.520Z,0.09
2023-02-27T23:50:11.775Z,0.08
2023-02-27T23:52:42.431Z,0.07
2023-02-27T23:55:12.495Z,0.07
2023-02-27T23:57:43.067Z,0.08
